createdAt,value
2023-03-04T00:03:15.820Z,6.22
2023-03-04T00:06:34.750Z,6.23
2023-03-04T00:10:06.603Z,6.21
2023-03-04T00:13:35.376Z,6.20
2023-03-04T00:17:04.051Z,6.21
2023-03-04T00:20:15.767Z,6.22
2023-03-04T00:23:44.554Z,6.22
2023-03-04T00:27:13.263Z,6.25
2023-03-04T00:30:41.991Z,6.23
2023-03-04T00:34:10.756Z,6.22
2023-03-04T00:37:40.290Z,6.22
2023-03-04T00:41:09.273Z,6.20
2023-03-04T00:44:38.153Z,6.17
2023-03-04T00:48:06.860Z,6.11
2023-03-04T00:51:35.592Z,6.04
2023-03-04T00:55:04.468Z,5.95
2023-03-04T00:58:26.037Z,5.87
2023-03-04T01:01:54.846Z,5.77
2023-03-04T01:05:23.655Z,5.71
2023-03-04T01:08:52.498Z,5.65
2023-03-04T01:12:21.184Z,5.57
2023-03-04T01:15:35.494Z,5.52
2023-03-04T01:18:57.191Z,5.45
2023-03-04T01:22:25.869Z,5.39
2023-03-04T01:25:55.131Z,5.33
2023-03-04T01:29:23.876Z,5.28
2023-03-04T01:32:52.615Z,5.24
2023-03-04T01:36:21.460Z,5.20
2023-03-04T01:39:50.123Z,5.16
2023-03-04T01:43:19.052Z,5.14
2023-03-04T01:46:40.866Z,5.14
2023-03-04T01:50:00.331Z,5.12
2023-03-04T01:53:29.035Z,5.09
2023-03-04T01:57:00.792Z,5.09
2023-03-04T02:00:30.093Z,5.10
2023-03-04T02:04:04.631Z,5.08
2023-03-04T02:07:33.490Z,5.10
2023-03-04T02:11:05.262Z,5.11
2023-03-04T02:14:34.408Z,5.11
2023-03-04T02:18:08.922Z,5.11
2023-03-04T02:21:41.672Z,5.11
2023-03-04T02:25:28.124Z,5.10
2023-03-04T02:28:56.841Z,5.13
2023-03-04T02:32:31.414Z,5.13
2023-03-04T02:35:53.031Z,5.14
2023-03-04T02:39:22.761Z,5.14
2023-03-04T02:42:29.165Z,5.15
2023-03-04T02:45:43.282Z,5.15
2023-03-04T02:49:11.872Z,5.15
2023-03-04T02:52:41.201Z,5.14
2023-03-04T02:56:10.005Z,5.17
2023-03-04T02:59:39.122Z,5.19
2023-03-04T03:03:08.536Z,5.19
2023-03-04T03:06:37.256Z,5.21
2023-03-04T03:10:06.099Z,5.24
2023-03-04T03:13:36.131Z,5.25
2023-03-04T03:17:05.050Z,5.28
2023-03-04T03:20:34.045Z,5.30
2023-03-04T03:24:03.440Z,5.30
2023-03-04T03:27:31.008Z,5.30
2023-03-04T03:30:59.715Z,5.31
2023-03-04T03:34:28.533Z,5.33
2023-03-04T03:37:57.185Z,5.36
2023-03-04T03:41:25.935Z,5.38
2023-03-04T03:44:54.706Z,5.39
2023-03-04T03:48:23.605Z,5.37
2023-03-04T03:51:52.403Z,5.37
2023-03-04T03:55:21.155Z,5.39
2023-03-04T03:58:32.186Z,5.38
2023-03-04T04:02:01.180Z,5.35
2023-03-04T04:05:29.947Z,5.35
2023-03-04T04:08:59.357Z,5.34
2023-03-04T04:12:28.303Z,5.34
2023-03-04T04:15:56.967Z,5.33
2023-03-04T04:19:25.960Z,5.32
2023-03-04T04:22:57.998Z,5.30
2023-03-04T04:26:26.667Z,5.30
2023-03-04T04:29:48.962Z,5.28
2023-03-04T04:33:17.815Z,5.25
2023-03-04T04:36:46.297Z,5.23
2023-03-04T04:40:15.617Z,5.21
2023-03-04T04:43:44.917Z,5.19
2023-03-04T04:47:14.336Z,5.15
2023-03-04T04:50:43.651Z,5.11
2023-03-04T04:57:54.977Z,5.04
2023-03-04T05:01:23.763Z,5.00
2023-03-04T05:04:52.635Z,4.98
2023-03-04T05:08:22.078Z,4.98
2023-03-04T05:11:51.374Z,4.99
2023-03-04T05:15:20.706Z,5.00
2023-03-04T05:18:43.040Z,5.02
2023-03-04T05:22:12.541Z,5.03
2023-03-04T05:25:41.259Z,5.04
2023-03-04T05:29:10.036Z,5.04
2023-03-04T05:32:31.796Z,5.05
2023-03-04T05:36:01.232Z,5.06
2023-03-04T05:39:30.540Z,5.07
2023-03-04T05:42:58.650Z,5.07
2023-03-04T05:46:26.822Z,5.07
2023-03-04T05:49:56.063Z,5.06
2023-03-04T05:53:14.079Z,5.06
2023-03-04T05:56:43.167Z,5.04
2023-03-04T06:00:12.254Z,5.02
2023-03-04T06:03:34.374Z,5.00
2023-03-04T06:07:03.480Z,4.99
2023-03-04T06:10:32.914Z,4.97
2023-03-04T06:13:35.268Z,4.95
2023-03-04T06:17:04.432Z,4.94
2023-03-04T06:20:33.277Z,4.95
2023-03-04T06:24:02.290Z,4.97
2023-03-04T06:27:21.705Z,4.99
2023-03-04T06:30:51.467Z,5.02
2023-03-04T06:34:20.699Z,5.05
2023-03-04T06:37:49.089Z,5.09
2023-03-04T06:41:17.973Z,5.11
2023-03-04T06:44:47.086Z,5.12
2023-03-04T06:48:16.192Z,5.13
2023-03-04T06:51:47.884Z,5.15
2023-03-04T06:55:17.081Z,5.18
2023-03-04T06:58:46.320Z,5.21
2023-03-04T07:02:15.300Z,5.22
2023-03-04T07:05:44.116Z,5.22
2023-03-04T07:09:12.909Z,5.22
2023-03-04T07:12:42.094Z,5.22
2023-03-04T07:16:02.359Z,5.23
2023-03-04T07:19:31.219Z,5.22
2023-03-04T07:22:59.916Z,5.22
2023-03-04T07:26:29.190Z,5.23
2023-03-04T07:29:58.502Z,5.24
2023-03-04T07:33:27.893Z,5.23
2023-03-04T07:37:02.577Z,5.22
2023-03-04T07:40:31.645Z,5.19
2023-03-04T07:44:00.347Z,5.18
2023-03-04T07:47:29.530Z,5.18
2023-03-04T07:50:58.889Z,5.18
2023-03-04T07:54:27.540Z,5.16
2023-03-04T07:57:53.942Z,5.15
2023-03-04T08:04:50.512Z,5.12
2023-03-04T08:08:19.312Z,5.03
2023-03-04T08:11:48.520Z,4.97
2023-03-04T08:15:17.573Z,4.92
2023-03-04T08:18:46.970Z,4.88
2023-03-04T08:22:16.280Z,4.84
2023-03-04T08:25:45.388Z,4.79
2023-03-04T08:29:03.895Z,4.76
2023-03-04T08:32:33.165Z,4.76
2023-03-04T08:36:02.108Z,4.72
2023-03-04T08:39:31.182Z,4.71
2023-03-04T08:43:00.270Z,4.70
2023-03-04T08:46:14.361Z,4.68
2023-03-04T08:49:43.767Z,4.66
2023-03-04T08:53:03.102Z,4.62
2023-03-04T08:56:22.722Z,4.61
2023-03-04T08:59:51.674Z,4.58
2023-03-04T09:03:20.918Z,4.55
2023-03-04T09:06:49.964Z,4.50
2023-03-04T09:10:19.390Z,4.42
2023-03-04T09:13:49.087Z,4.37
2023-03-04T09:17:18.138Z,4.34
2023-03-04T09:20:47.137Z,4.30
2023-03-04T09:24:15.528Z,4.26
2023-03-04T09:27:44.839Z,4.24
2023-03-04T09:31:14.048Z,4.23
2023-03-04T09:34:42.832Z,4.20
2023-03-04T09:38:04.544Z,4.18
2023-03-04T09:41:33.734Z,4.15
2023-03-04T09:45:03.326Z,4.12
2023-03-04T09:48:22.940Z,4.09
2023-03-04T09:51:53.524Z,4.06
2023-03-04T09:55:39.947Z,4.03
2023-03-04T09:59:27.562Z,4.00
2023-03-04T10:02:59.746Z,3.99
2023-03-04T10:06:44.542Z,3.95
2023-03-04T10:10:28.955Z,3.93
2023-03-04T10:13:57.758Z,3.92
2023-03-04T10:17:26.490Z,3.91
2023-03-04T10:21:01.377Z,3.89
2023-03-04T10:24:30.067Z,3.88
2023-03-04T10:27:58.940Z,3.88
2023-03-04T10:31:39.844Z,3.89
2023-03-04T10:35:08.682Z,3.90
2023-03-04T10:38:46.700Z,3.92
2023-03-04T10:42:15.843Z,3.93
2023-03-04T10:45:45.833Z,3.94
2023-03-04T10:49:21.034Z,3.94
2023-03-04T10:52:56.358Z,3.92
2023-03-04T10:56:25.469Z,3.90
2023-03-04T10:59:56.028Z,3.89
2023-03-04T11:03:29.845Z,3.90
2023-03-04T11:07:14.895Z,3.92
2023-03-04T11:10:50.458Z,3.94
2023-03-04T11:14:24.129Z,3.96
2023-03-04T11:18:01.527Z,3.98
2023-03-04T11:21:33.391Z,4.01
2023-03-04T11:25:14.522Z,4.03
2023-03-04T11:28:43.978Z,4.05
2023-03-04T11:32:16.492Z,4.08
2023-03-04T11:35:48.902Z,4.08
2023-03-04T11:39:23.557Z,4.08
2023-03-04T11:42:59.991Z,4.09
2023-03-04T11:46:47.953Z,4.11
2023-03-04T11:50:40.551Z,4.11
2023-03-04T11:54:18.162Z,4.12
2023-03-04T11:57:55.927Z,4.12
2023-03-04T12:01:28.462Z,4.15
2023-03-04T12:04:55.981Z,4.18
2023-03-04T12:08:36.205Z,4.20
2023-03-04T12:12:03.839Z,4.23
2023-03-04T12:15:41.495Z,4.26
2023-03-04T12:19:14.756Z,4.29
2023-03-04T12:23:01.666Z,4.31
2023-03-04T12:26:30.942Z,4.32
2023-03-04T12:30:05.341Z,4.34
2023-03-04T12:33:30.122Z,4.36
2023-03-04T12:37:13.874Z,4.37
2023-03-04T12:40:42.526Z,4.38
2023-03-04T12:44:17.204Z,4.41
2023-03-04T12:48:14.236Z,4.42
2023-03-04T12:51:54.706Z,4.43
2023-03-04T12:55:29.184Z,4.43
2023-03-04T12:58:58.261Z,4.43
2023-03-04T13:02:33.722Z,4.44
2023-03-04T13:06:20.567Z,4.43
2023-03-04T13:10:10.444Z,4.44
2023-03-04T13:13:39.169Z,4.45
2023-03-04T13:17:14.369Z,4.45
2023-03-04T13:20:46.185Z,4.46
2023-03-04T13:24:27.233Z,4.46
2023-03-04T13:27:53.871Z,4.47
2023-03-04T13:32:16.436Z,4.49
2023-03-04T13:35:25.178Z,4.50
2023-03-04T13:39:03.265Z,4.49
2023-03-04T13:42:26.318Z,4.49
2023-03-04T13:46:00.433Z,4.48
2023-03-04T13:49:32.240Z,4.47
2023-03-04T13:52:59.606Z,4.43
2023-03-04T13:56:41.572Z,4.41
2023-03-04T14:00:10.984Z,4.36
2023-03-04T14:03:40.167Z,4.34
2023-03-04T14:07:12.151Z,4.32
2023-03-04T14:10:44.462Z,4.30
2023-03-04T14:14:13.669Z,4.28
2023-03-04T14:17:45.930Z,4.24
2023-03-04T14:21:21.097Z,4.21
2023-03-04T14:24:50.169Z,4.20
2023-03-04T14:28:19.402Z,4.19
2023-03-04T14:31:56.969Z,4.17
2023-03-04T14:35:25.717Z,4.15
2023-03-04T14:39:12.725Z,4.13
2023-03-04T14:42:40.290Z,4.12
2023-03-04T14:46:09.481Z,4.13
2023-03-04T14:49:39.169Z,4.12
2023-03-04T14:53:08.132Z,4.11
2023-03-04T14:56:39.462Z,4.07
2023-03-04T14:59:54.105Z,4.07
2023-03-04T15:03:23.475Z,4.04
2023-03-04T15:07:01.637Z,4.02
2023-03-04T15:10:33.478Z,3.99
2023-03-04T15:14:02.177Z,3.96
2023-03-04T15:17:33.805Z,3.95
2023-03-04T15:21:08.110Z,3.95
2023-03-04T15:24:37.545Z,3.96
2023-03-04T15:28:06.318Z,3.99
2023-03-04T15:31:28.637Z,4.01
2023-03-04T15:34:57.299Z,4.01
2023-03-04T15:38:29.296Z,4.01
2023-03-04T15:42:04.418Z,4.01
2023-03-04T15:45:34.121Z,4.01
2023-03-04T15:48:55.274Z,4.02
2023-03-04T15:52:24.266Z,4.02
2023-03-04T15:55:59.736Z,4.01
2023-03-04T15:59:28.630Z,3.99
2023-03-04T16:02:57.675Z,3.99
2023-03-04T16:06:27.113Z,3.97
2023-03-04T16:09:56.467Z,3.94
2023-03-04T16:13:18.387Z,3.93
2023-03-04T16:16:47.988Z,3.93
2023-03-04T16:20:17.416Z,3.92
2023-03-04T16:23:46.602Z,3.91
2023-03-04T16:27:06.312Z,3.91
2023-03-04T16:30:35.311Z,3.90
2023-03-04T16:34:04.198Z,3.90
2023-03-04T16:37:26.616Z,3.91
2023-03-04T16:40:55.761Z,3.91
2023-03-04T16:44:14.546Z,3.95
2023-03-04T16:47:43.635Z,3.96
2023-03-04T16:51:13.010Z,3.98
2023-03-04T16:54:42.655Z,4.02
2023-03-04T16:58:11.980Z,4.04
2023-03-04T17:01:38.567Z,4.05
2023-03-04T17:04:57.993Z,4.05
2023-03-04T17:08:27.296Z,4.07
2023-03-04T17:11:57.205Z,4.10
2023-03-04T17:15:18.637Z,4.14
2023-03-04T17:18:46.855Z,4.15
2023-03-04T17:22:16.162Z,4.16
2023-03-04T17:25:38.921Z,4.16
2023-03-04T17:29:09.845Z,4.17
2023-03-04T17:32:24.844Z,4.16
2023-03-04T17:35:44.638Z,4.16
2023-03-04T17:39:13.821Z,4.16
2023-03-04T17:42:43.096Z,4.15
2023-03-04T17:46:12.053Z,4.17
2023-03-04T17:49:41.158Z,4.18
2023-03-04T17:53:10.621Z,4.17
2023-03-04T17:56:39.781Z,4.15
2023-03-04T18:00:08.881Z,4.14
2023-03-04T18:03:38.084Z,4.11
2023-03-04T18:07:07.753Z,4.07
2023-03-04T18:10:37.123Z,4.03
2023-03-04T18:13:46.702Z,4.00
2023-03-04T18:17:15.345Z,3.96
2023-03-04T18:20:43.139Z,3.95
2023-03-04T18:24:12.510Z,3.91
2023-03-04T18:27:32.785Z,3.89
2023-03-04T18:31:02.214Z,3.86
2023-03-04T18:34:31.287Z,3.83
2023-03-04T18:38:00.677Z,3.80
2023-03-04T18:41:29.928Z,3.79
2023-03-04T18:44:59.002Z,3.80
2023-03-04T18:48:27.671Z,3.82
2023-03-04T18:51:56.935Z,3.84
2023-03-04T18:55:26.058Z,3.86
2023-03-04T18:58:55.282Z,3.90
2023-03-04T19:02:13.030Z,3.94
2023-03-04T19:05:42.219Z,3.98
2023-03-04T19:09:01.893Z,4.05
2023-03-04T19:12:24.683Z,4.13
2023-03-04T19:15:53.918Z,4.19
2023-03-04T19:19:23.437Z,4.26
2023-03-04T19:22:52.430Z,4.32
2023-03-04T19:26:22.117Z,4.35
2023-03-04T19:29:44.666Z,4.38
2023-03-04T19:33:13.796Z,4.42
2023-03-04T19:36:43.411Z,4.48
2023-03-04T19:40:15.081Z,4.55
2023-03-04T19:43:44.370Z,4.61
2023-03-04T19:47:13.291Z,4.65
2023-03-04T19:50:42.076Z,4.70
2023-03-04T19:54:11.031Z,4.71
2023-03-04T19:57:40.242Z,4.74
2023-03-04T20:01:09.801Z,4.79
2023-03-04T20:04:39.256Z,4.84
2023-03-04T20:08:08.738Z,4.90
2023-03-04T20:11:47.401Z,4.98
2023-03-04T20:15:25.448Z,5.05
2023-03-04T20:18:46.912Z,5.12
2023-03-04T20:22:15.807Z,5.20
2023-03-04T20:25:44.672Z,5.29
2023-03-04T20:29:13.811Z,5.38
2023-03-04T20:32:43.143Z,5.47
2023-03-04T20:36:12.681Z,5.53
2023-03-04T20:39:44.365Z,5.61
2023-03-04T20:43:13.583Z,5.70
2023-03-04T20:46:36.102Z,5.75
2023-03-04T20:50:05.414Z,5.82
2023-03-04T20:53:34.342Z,5.85
2023-03-04T20:57:06.416Z,5.90
2023-03-04T21:00:35.669Z,5.96
2023-03-04T21:04:05.224Z,6.04
2023-03-04T21:07:34.372Z,6.09
2023-03-04T21:11:03.603Z,6.14
2023-03-04T21:14:25.503Z,6.19
2023-03-04T21:17:54.053Z,6.24
2023-03-04T21:21:16.353Z,6.28
2023-03-04T21:24:45.444Z,6.30
2023-03-04T21:28:03.670Z,6.32
2023-03-04T21:31:32.750Z,6.35
2023-03-04T21:35:04.704Z,6.39
2023-03-04T21:38:33.424Z,6.43
2023-03-04T21:42:02.507Z,6.47
2023-03-04T21:45:31.821Z,6.51
2023-03-04T21:49:01.025Z,6.49
2023-03-04T21:52:22.849Z,6.49
2023-03-04T21:55:51.470Z,6.50
2023-03-04T21:59:20.602Z,6.52
2023-03-04T22:02:41.774Z,6.58
2023-03-04T22:06:11.226Z,6.63
2023-03-04T22:09:40.405Z,6.63
2023-03-04T22:13:10.237Z,6.66
2023-03-04T22:16:54.158Z,6.65
2023-03-04T22:20:24.659Z,6.62
2023-03-04T22:23:54.013Z,6.55
2023-03-04T22:27:24.045Z,6.48
2023-03-04T22:30:53.469Z,6.40
2023-03-04T22:34:22.098Z,6.32
2023-03-04T22:37:51.141Z,6.28
2023-03-04T22:41:20.001Z,6.24
2023-03-04T22:44:49.193Z,6.22
2023-03-04T22:48:11.205Z,6.21
2023-03-04T22:51:40.147Z,6.19
2023-03-04T22:55:09.824Z,6.19
2023-03-04T22:58:39.165Z,6.17
2023-03-04T23:02:08.608Z,6.15
2023-03-04T23:05:37.999Z,6.14
2023-03-04T23:09:07.202Z,6.13
2023-03-04T23:12:36.346Z,6.13
2023-03-04T23:16:05.690Z,6.14
2023-03-04T23:19:34.920Z,6.13
2023-03-04T23:23:04.061Z,6.15
2023-03-04T23:26:33.212Z,6.17
2023-03-04T23:29:55.743Z,6.18
2023-03-04T23:33:17.199Z,6.17
2023-03-04T23:36:38.567Z,6.18
2023-03-04T23:40:07.287Z,6.21
2023-03-04T23:43:36.494Z,6.24
2023-03-04T23:47:05.544Z,6.27
2023-03-04T23:50:34.683Z,6.28
2023-03-04T23:54:03.964Z,6.29
2023-03-04T23:57:32.970Z,6.29
